Time;durP1;ratioP1;P1;durP2;ratioP2;P2;SDS_P1;SDS_P2;PMS_P1;PMS_P2;Temp;Humidity;BMP_temperature;BMP_pressure;BME280_temperature;BME280_humidity;BME280_pressure;Samples;Min_cycle;Max_cycle;Signal;HPM_P1;HPM_P2
2022/09/09 00:01:43;;;;;;;4.97;1.67;;;12.30;99.90;;;;;;5059134;28;21103;-61
2022/09/09 00:04:15;;;;;;;2.13;1.63;;;12.30;99.90;;;;;;5068518;28;20440;-61
2022/09/09 00:06:45;;;;;;;7.30;2.37;;;12.20;99.90;;;;;;5068633;28;20475;-61
2022/09/09 00:09:16;;;;;;;4.60;1.83;;;12.20;99.90;;;;;;5068150;28;20478;-61
2022/09/09 00:11:50;;;;;;;2.47;1.80;;;12.10;99.90;;;;;;5061979;28;20495;-61
2022/09/09 00:14:31;;;;;;;4.93;1.97;;;12.10;99.90;;;;;;5060503;28;20498;-61
2022/09/09 00:17:04;;;;;;;3.90;1.70;;;12.10;99.90;;;;;;5062026;28;20976;-61
2022/09/09 00:19:51;;;;;;;6.27;1.90;;;12.10;99.90;;;;;;5047298;28;20444;-61
2022/09/09 00:22:18;;;;;;;3.73;1.73;;;12.00;99.90;;;;;;5067172;28;20431;-61
2022/09/09 00:24:55;;;;;;;7.00;1.70;;;12.00;99.90;;;;;;5068260;28;20432;-61
2022/09/09 00:27:45;;;;;;;3.43;1.60;;;12.00;99.90;;;;;;5042819;28;20440;-61
2022/09/09 00:30:25;;;;;;;3.50;1.87;;;12.00;99.90;;;;;;5068072;28;20437;-61
2022/09/09 00:32:59;;;;;;;5.40;1.83;;;12.00;99.90;;;;;;5062208;28;20424;-61
2022/09/09 00:35:29;;;;;;;5.40;1.80;;;12.00;99.90;;;;;;5070921;28;20420;-61
2022/09/09 00:38:01;;;;;;;2.37;1.90;;;11.90;99.90;;;;;;5071062;28;20914;-61
2022/09/09 00:40:35;;;;;;;4.90;1.83;;;11.90;99.90;;;;;;5075823;28;20919;-61
2022/09/09 00:43:22;;;;;;;4.07;1.83;;;11.90;99.90;;;;;;5064986;28;20425;-62
2022/09/09 00:46:19;;;;;;;3.37;2.00;;;11.80;99.90;;;;;;5065745;28;20425;-61
2022/09/09 00:48:54;;;;;;;2.87;2.10;;;11.80;99.90;;;;;;5068681;28;20444;-61
2022/09/09 00:51:47;;;;;;;2.57;1.70;;;11.80;99.90;;;;;;5045139;28;20494;-61
2022/09/09 00:54:22;;;;;;;5.40;2.00;;;11.80;99.90;;;;;;5061229;28;20503;-61
2022/09/09 00:57:14;;;;;;;4.10;2.00;;;11.70;99.90;;;;;;5065181;28;20522;-61
2022/09/09 00:59:47;;;;;;;2.67;1.77;;;11.70;99.90;;;;;;5066977;28;20439;-61
2022/09/09 01:02:51;;;;;;;3.43;1.73;;;11.70;99.90;;;;;;5061855;28;20448;-61
2022/09/09 01:05:35;;;;;;;3.13;2.10;;;11.70;99.90;;;;;;5060846;28;20444;-61
2022/09/09 01:08:05;;;;;;;4.30;1.70;;;11.60;99.90;;;;;;5067800;28;20476;-61
2022/09/09 01:10:43;;;;;;;5.03;1.90;;;11.60;99.90;;;;;;5062483;28;20460;-61
2022/09/09 01:13:34;;;;;;;2.43;1.60;;;11.60;99.90;;;;;;5064117;28;20455;-61
2022/09/09 01:16:02;;;;;;;9.30;1.90;;;11.60;99.90;;;;;;5065891;28;20536;-62
2022/09/09 01:18:39;;;;;;;3.20;2.00;;;11.60;99.90;;;;;;5062143;28;20494;-61
2022/09/09 01:21:25;;;;;;;4.40;2.40;;;11.60;99.90;;;;;;5067015;28;20515;-61
2022/09/09 01:24:09;;;;;;;3.33;1.93;;;11.60;99.90;;;;;;5066465;28;20444;-61
2022/09/09 01:26:38;;;;;;;2.70;1.50;;;11.60;99.90;;;;;;5066191;28;20489;-61
2022/09/09 01:29:13;;;;;;;6.10;1.90;;;11.60;99.90;;;;;;5061096;28;20441;-61
2022/09/09 01:31:41;;;;;;;2.30;1.80;;;11.60;99.90;;;;;;5064549;28;20464;-61
2022/09/09 01:34:14;;;;;;;2.50;2.20;;;11.50;99.90;;;;;;5067759;28;20843;-61
2022/09/09 01:36:55;;;;;;;2.63;2.03;;;11.50;99.90;;;;;;5059585;28;20515;-61
2022/09/09 01:39:21;;;;;;;7.60;2.03;;;11.60;99.90;;;;;;5066458;28;20692;-61
2022/09/09 01:41:46;;;;;;;2.37;1.90;;;11.50;99.90;;;;;;5066860;28;21154;-61
2022/09/09 01:44:13;;;;;;;1.77;1.67;;;11.50;99.90;;;;;;5065242;28;21082;-61
2022/09/09 01:46:39;;;;;;;5.23;1.70;;;11.50;99.90;;;;;;5060890;28;20226;-61
2022/09/09 01:49:07;;;;;;;2.73;1.93;;;11.60;99.90;;;;;;5069542;28;20501;-61
2022/09/09 01:51:34;;;;;;;3.77;1.80;;;11.60;99.90;;;;;;5061072;28;20301;-61
2022/09/09 01:54:01;;;;;;;8.60;2.60;;;11.60;99.90;;;;;;5066472;28;20445;-61
2022/09/09 01:56:30;;;;;;;4.00;2.03;;;11.60;99.90;;;;;;5046258;28;20444;-61
2022/09/09 01:59:39;;;;;;;3.47;2.07;;;11.60;99.90;;;;;;5055572;28;20470;-61
2022/09/09 02:02:23;;;;;;;3.43;1.93;;;11.70;99.90;;;;;;5002247;28;20447;-61
2022/09/09 02:04:53;;;;;;;3.03;2.17;;;11.60;99.90;;;;;;5063487;28;20444;-61
2022/09/09 02:07:42;;;;;;;5.37;2.27;;;11.70;99.90;;;;;;5062046;28;20460;-61
2022/09/09 02:10:11;;;;;;;3.43;2.03;;;11.70;99.90;;;;;;5064057;28;20440;-61
2022/09/09 02:12:41;;;;;;;2.80;2.00;;;11.70;99.90;;;;;;5062763;28;20521;-62
2022/09/09 02:15:42;;;;;;;7.40;2.87;;;11.80;99.90;;;;;;5066615;28;20535;-62
2022/09/09 02:18:09;;;;;;;3.93;2.27;;;11.80;99.90;;;;;;5062056;28;20493;-61
2022/09/09 02:20:38;;;;;;;8.67;2.50;;;11.80;99.90;;;;;;5063568;28;20942;-61
2022/09/09 02:23:05;;;;;;;3.80;2.27;;;11.80;99.90;;;;;;5063886;28;20991;-61
2022/09/09 02:25:32;;;;;;;5.07;2.30;;;11.80;99.90;;;;;;5063265;28;20642;-61
2022/09/09 02:27:58;;;;;;;5.17;2.30;;;11.80;99.90;;;;;;5063685;28;20460;-61
2022/09/09 02:30:24;;;;;;;5.77;2.10;;;11.80;99.90;;;;;;5069044;28;20507;-61
2022/09/09 02:32:56;;;;;;;2.90;2.40;;;11.80;99.90;;;;;;5063439;28;22534;-61
2022/09/09 02:35:24;;;;;;;4.83;2.00;;;11.80;99.90;;;;;;5067126;28;20429;-61
2022/09/09 02:37:52;;;;;;;3.50;2.33;;;11.80;99.90;;;;;;5063070;28;20501;-61
2022/09/09 02:40:18;;;;;;;4.40;2.23;;;11.90;99.90;;;;;;5065492;28;20424;-61
2022/09/09 02:42:47;;;;;;;8.20;2.60;;;11.90;99.90;;;;;;5062937;28;20798;-61
2022/09/09 02:45:25;;;;;;;7.27;2.60;;;11.90;99.90;;;;;;5061977;28;20452;-60
2022/09/09 02:47:54;;;;;;;3.50;1.90;;;11.90;99.90;;;;;;5065428;28;20448;-61
2022/09/09 02:50:33;;;;;;;3.37;2.03;;;12.00;99.90;;;;;;5066296;28;20436;-60
2022/09/09 02:53:20;;;;;;;4.70;2.37;;;11.90;99.90;;;;;;5062138;28;20458;-61
2022/09/09 02:55:46;;;;;;;4.40;2.30;;;11.90;99.90;;;;;;5067807;28;20428;-61
2022/09/09 02:58:16;;;;;;;6.20;2.10;;;11.90;99.90;;;;;;5070156;28;20531;-60
2022/09/09 03:00:45;;;;;;;6.30;2.23;;;11.90;99.90;;;;;;5043623;28;20715;-61
2022/09/09 03:03:11;;;;;;;6.63;2.53;;;11.80;99.90;;;;;;5061317;28;20463;-61
2022/09/09 03:05:37;;;;;;;2.80;2.37;;;11.80;99.90;;;;;;5069588;28;20507;-61
2022/09/09 03:08:03;;;;;;;4.97;2.67;;;11.80;99.90;;;;;;5046443;28;20459;-61
2022/09/09 03:10:29;;;;;;;3.10;2.00;;;11.90;99.90;;;;;;5065118;28;20662;-61
2022/09/09 03:12:55;;;;;;;4.50;2.40;;;11.90;99.90;;;;;;5064730;28;20460;-61
2022/09/09 03:15:21;;;;;;;2.40;2.07;;;11.90;99.90;;;;;;5070718;28;20202;-60
2022/09/09 03:17:47;;;;;;;4.90;3.07;;;11.90;99.90;;;;;;5062724;28;20201;-61
2022/09/09 03:20:12;;;;;;;5.57;2.50;;;11.90;99.90;;;;;;5070363;28;20178;-61
2022/09/09 03:22:38;;;;;;;5.07;2.70;;;11.90;99.90;;;;;;5066210;28;22000;-60
2022/09/09 03:25:05;;;;;;;5.70;2.33;;;11.90;99.90;;;;;;5050403;28;20182;-60
2022/09/09 03:27:31;;;;;;;6.00;2.60;;;11.90;99.90;;;;;;5066389;28;21048;-61
2022/09/09 03:29:57;;;;;;;4.90;2.57;;;11.90;99.90;;;;;;5071502;28;20436;-60
2022/09/09 03:32:25;;;;;;;3.73;2.17;;;11.90;99.90;;;;;;5065172;28;20460;-60
2022/09/09 03:34:52;;;;;;;4.87;1.97;;;11.90;99.90;;;;;;5068923;28;20189;-60
2022/09/09 03:37:19;;;;;;;4.80;2.17;;;11.90;99.90;;;;;;5062584;28;20976;-60
2022/09/09 03:39:44;;;;;;;4.70;2.73;;;11.80;99.90;;;;;;5068517;28;20428;-60
2022/09/09 03:42:19;;;;;;;9.53;2.70;;;11.80;99.90;;;;;;5063462;28;20440;-61
2022/09/09 03:44:49;;;;;;;3.50;2.90;;;11.80;99.90;;;;;;5065754;28;20553;-60
2022/09/09 03:47:16;;;;;;;2.77;2.47;;;11.90;99.90;;;;;;5060593;28;20547;-60
2022/09/09 03:49:42;;;;;;;5.57;2.93;;;11.90;99.90;;;;;;5062486;28;20447;-60
2022/09/09 03:52:09;;;;;;;6.87;2.57;;;11.90;99.90;;;;;;5066880;28;20464;-61
2022/09/09 03:54:34;;;;;;;4.17;2.57;;;11.90;99.90;;;;;;5064618;28;20221;-60
2022/09/09 03:57:00;;;;;;;3.03;2.33;;;11.90;99.90;;;;;;5066256;28;20484;-60
2022/09/09 03:59:26;;;;;;;3.80;2.20;;;12.00;99.90;;;;;;5053434;28;20185;-61
2022/09/09 04:01:52;;;;;;;3.17;2.40;;;12.00;99.90;;;;;;5067944;28;20612;-60
2022/09/09 04:04:17;;;;;;;3.90;2.50;;;12.00;99.90;;;;;;5065960;28;20429;-61
2022/09/09 04:06:43;;;;;;;3.57;2.67;;;12.00;99.90;;;;;;5066666;28;20842;-61
2022/09/09 04:09:08;;;;;;;3.70;2.30;;;12.00;99.90;;;;;;5064837;28;20213;-61
2022/09/09 04:11:34;;;;;;;3.30;2.30;;;12.00;99.90;;;;;;5045041;28;20711;-60
2022/09/09 04:14:00;;;;;;;3.43;2.17;;;12.00;99.90;;;;;;5068448;28;20202;-61
2022/09/09 04:16:26;;;;;;;4.20;2.37;;;12.00;99.90;;;;;;5065322;28;20274;-60
2022/09/09 04:18:53;;;;;;;3.23;2.30;;;12.00;99.90;;;;;;5044084;28;20555;-61
2022/09/09 04:21:18;;;;;;;3.93;2.30;;;12.00;99.90;;;;;;5064899;28;20166;-60
2022/09/09 04:23:44;;;;;;;6.10;2.20;;;12.00;99.90;;;;;;5064292;28;20437;-62
2022/09/09 04:26:09;;;;;;;4.33;2.27;;;11.90;99.90;;;;;;5061621;28;20167;-60
2022/09/09 04:28:36;;;;;;;6.57;2.20;;;11.90;99.90;;;;;;5064427;28;20194;-60
2022/09/09 04:31:14;;;;;;;4.23;2.00;;;11.90;99.90;;;;;;5065858;28;20194;-61
2022/09/09 04:33:40;;;;;;;7.47;2.80;;;11.90;99.90;;;;;;5048252;28;20835;-60
2022/09/09 04:36:05;;;;;;;2.57;2.37;;;11.90;99.90;;;;;;5048722;28;20478;-60
2022/09/09 04:38:31;;;;;;;7.53;2.63;;;11.90;99.90;;;;;;5071225;28;20190;-61
2022/09/09 04:40:57;;;;;;;13.97;2.53;;;11.90;99.90;;;;;;5068149;28;20258;-61
2022/09/09 04:43:25;;;;;;;2.60;2.20;;;11.90;99.90;;;;;;5059025;28;20268;-61
2022/09/09 04:45:52;;;;;;;3.27;2.07;;;12.00;99.90;;;;;;5069010;28;20651;-60
2022/09/09 04:48:18;;;;;;;2.70;2.40;;;11.90;99.90;;;;;;5046137;28;20548;-60
2022/09/09 04:50:44;;;;;;;4.20;2.20;;;11.90;99.90;;;;;;5061534;28;20464;-60
2022/09/09 04:53:09;;;;;;;2.40;2.00;;;11.90;99.90;;;;;;5064717;28;20849;-60
2022/09/09 04:55:35;;;;;;;2.20;2.00;;;11.80;99.90;;;;;;5066385;28;20175;-60
2022/09/09 04:58:08;;;;;;;2.93;2.30;;;11.80;99.90;;;;;;5066611;28;20698;-61
2022/09/09 05:00:35;;;;;;;5.90;2.53;;;11.90;99.90;;;;;;5064947;28;20246;-60
2022/09/09 05:03:05;;;;;;;3.77;2.50;;;11.90;99.90;;;;;;5067448;28;20429;-60
2022/09/09 05:05:34;;;;;;;6.37;2.60;;;11.90;99.90;;;;;;5065247;28;20428;-60
2022/09/09 05:08:08;;;;;;;9.17;2.40;;;11.90;99.90;;;;;;5067998;28;20834;-61
2022/09/09 05:10:36;;;;;;;8.10;6.63;;;12.00;99.90;;;;;;5061225;28;20456;-61
2022/09/09 05:13:02;;;;;;;11.93;6.63;;;11.90;99.90;;;;;;5063225;28;20425;-61
2022/09/09 05:15:28;;;;;;;11.63;3.87;;;12.00;99.90;;;;;;5067466;28;20458;-60
2022/09/09 05:18:00;;;;;;;5.13;3.80;;;12.00;99.90;;;;;;5063684;28;20194;-61
2022/09/09 05:20:27;;;;;;;3.43;3.13;;;12.00;99.90;;;;;;5064725;28;20437;-59
2022/09/09 05:22:54;;;;;;;4.00;2.60;;;12.00;99.90;;;;;;5070535;28;20431;-60
2022/09/09 05:25:21;;;;;;;5.80;3.40;;;12.10;99.90;;;;;;5068654;28;21034;-55
2022/09/09 05:27:46;;;;;;;5.70;3.23;;;12.10;99.90;;;;;;5058089;28;20852;-59
2022/09/09 05:30:12;;;;;;;8.03;5.00;;;12.10;99.90;;;;;;5064483;28;20433;-59
2022/09/09 05:32:38;;;;;;;7.67;5.67;;;12.20;99.90;;;;;;5063283;28;20206;-59
2022/09/09 05:35:04;;;;;;;3.67;3.37;;;12.20;99.90;;;;;;5063522;28;20225;-59
2022/09/09 05:37:31;;;;;;;9.63;2.80;;;12.20;99.90;;;;;;5052975;28;20199;-57
2022/09/09 05:39:57;;;;;;;7.83;2.63;;;12.30;99.90;;;;;;5060050;28;20429;-58
2022/09/09 05:42:23;;;;;;;12.53;2.90;;;12.20;99.90;;;;;;5065745;28;20447;-58
2022/09/09 05:44:50;;;;;;;4.80;3.00;;;12.20;99.90;;;;;;5053821;28;20977;-61
2022/09/09 05:47:17;;;;;;;5.07;2.70;;;12.20;99.90;;;;;;5046005;28;20754;-61
2022/09/09 05:49:42;;;;;;;4.00;2.90;;;12.20;99.90;;;;;;5065824;28;20432;-60
2022/09/09 05:52:09;;;;;;;4.80;3.00;;;12.20;99.90;;;;;;5056724;28;21063;-60
2022/09/09 05:54:35;;;;;;;7.50;2.87;;;12.20;99.90;;;;;;5061950;28;20179;-60
2022/09/09 05:57:01;;;;;;;7.77;3.27;;;12.20;99.90;;;;;;5056925;28;20452;-61
2022/09/09 05:59:27;;;;;;;3.20;2.90;;;12.30;99.90;;;;;;5065315;28;20518;-60
2022/09/09 06:01:52;;;;;;;7.33;3.03;;;12.30;99.90;;;;;;5060489;28;20265;-61
2022/09/09 06:04:20;;;;;;;5.40;3.73;;;12.40;99.90;;;;;;5055210;28;20428;-58
2022/09/09 06:06:46;;;;;;;4.77;3.33;;;12.40;99.90;;;;;;5054422;28;20221;-61
2022/09/09 06:09:11;;;;;;;8.70;3.80;;;12.50;99.90;;;;;;5062440;28;20504;-60
2022/09/09 06:11:39;;;;;;;7.13;2.90;;;12.50;99.90;;;;;;5046052;28;20199;-61
2022/09/09 06:14:05;;;;;;;4.07;3.13;;;12.60;99.90;;;;;;5058190;28;20655;-62
2022/09/09 06:16:33;;;;;;;9.63;3.50;;;12.70;99.90;;;;;;5054843;28;20429;-60
2022/09/09 06:18:59;;;;;;;3.97;2.87;;;12.90;99.90;;;;;;5046897;28;20420;-61
2022/09/09 06:21:26;;;;;;;4.83;2.93;;;13.10;99.90;;;;;;5066271;28;20433;-61
2022/09/09 06:23:52;;;;;;;2.77;2.57;;;13.20;99.90;;;;;;5064201;28;20528;-59
2022/09/09 06:26:40;;;;;;;6.23;3.80;;;13.30;99.90;;;;;;5044222;28;20433;-61
2022/09/09 06:29:07;;;;;;;6.83;3.80;;;13.40;99.90;;;;;;5059920;28;20991;-61
2022/09/09 06:31:34;;;;;;;9.23;4.00;;;13.40;99.90;;;;;;5044152;28;20473;-61
2022/09/09 06:34:01;;;;;;;5.93;3.30;;;13.50;99.90;;;;;;5058631;28;20460;-61
2022/09/09 06:36:29;;;;;;;4.70;3.67;;;13.50;99.90;;;;;;5062588;28;20453;-61
2022/09/09 06:38:55;;;;;;;6.90;3.73;;;13.60;99.90;;;;;;5061452;28;20425;-61
2022/09/09 06:41:22;;;;;;;6.80;3.60;;;13.60;99.90;;;;;;5062928;28;20437;-60
2022/09/09 06:43:48;;;;;;;6.77;4.30;;;13.70;99.90;;;;;;5047164;28;20433;-61
2022/09/09 06:46:18;;;;;;;6.27;3.57;;;13.80;99.90;;;;;;5061125;28;20479;-60
2022/09/09 06:48:44;;;;;;;6.47;4.13;;;13.80;99.90;;;;;;5064699;28;20510;-60
2022/09/09 06:51:12;;;;;;;8.80;4.00;;;13.80;99.90;;;;;;5059921;28;20457;-61
2022/09/09 06:53:39;;;;;;;7.67;4.20;;;13.90;99.90;;;;;;5063260;28;20626;-60
2022/09/09 06:56:11;;;;;;;5.47;3.17;;;13.90;99.90;;;;;;5057817;28;20523;-61
2022/09/09 06:58:42;;;;;;;6.60;3.63;;;13.90;99.90;;;;;;5059602;28;20445;-62
2022/09/09 07:01:09;;;;;;;7.23;4.10;;;13.90;99.90;;;;;;5063066;28;20570;-61
2022/09/09 07:03:35;;;;;;;7.20;3.83;;;14.00;99.90;;;;;;5058439;28;20423;-62
2022/09/09 07:06:01;;;;;;;4.53;2.90;;;14.10;99.90;;;;;;5042247;28;20782;-61
2022/09/09 07:08:28;;;;;;;4.80;3.13;;;14.20;99.90;;;;;;5057804;28;21049;-61
2022/09/09 07:10:54;;;;;;;4.97;2.97;;;14.30;99.90;;;;;;5039797;28;20541;-61
2022/09/09 07:13:27;;;;;;;7.13;3.10;;;14.40;99.90;;;;;;5059975;28;20420;-62
2022/09/09 07:15:52;;;;;;;5.07;2.70;;;14.50;99.90;;;;;;5063567;28;20477;-61
2022/09/09 07:18:19;;;;;;;3.13;2.43;;;14.50;99.90;;;;;;5064927;28;20444;-61
2022/09/09 07:20:55;;;;;;;3.30;2.70;;;14.60;99.90;;;;;;5059568;28;20174;-62
2022/09/09 07:23:20;;;;;;;4.50;2.10;;;14.60;99.90;;;;;;5065803;28;20428;-61
2022/09/09 07:25:47;;;;;;;5.70;3.53;;;14.60;99.90;;;;;;5063431;28;20503;-61
2022/09/09 07:28:13;;;;;;;6.37;2.13;;;14.70;99.90;;;;;;5065021;28;20202;-61
2022/09/09 07:30:40;;;;;;;5.17;1.97;;;14.70;99.90;;;;;;5056605;28;20532;-61
2022/09/09 07:33:06;;;;;;;4.00;2.10;;;14.80;99.90;;;;;;5062837;28;20796;-61
2022/09/09 07:35:31;;;;;;;6.70;2.60;;;14.90;99.90;;;;;;5061690;28;20466;-61
2022/09/09 07:37:58;;;;;;;4.47;2.03;;;15.00;99.90;;;;;;5056493;28;20491;-61
2022/09/09 07:40:24;;;;;;;6.63;2.00;;;15.30;99.90;;;;;;5047040;28;20186;-62
2022/09/09 07:42:50;;;;;;;4.67;1.90;;;15.50;99.90;;;;;;5062972;28;20454;-61
2022/09/09 07:45:15;;;;;;;2.43;1.90;;;15.70;99.90;;;;;;5071106;28;21424;-62
2022/09/09 07:47:42;;;;;;;4.70;2.00;;;15.80;99.90;;;;;;5050007;28;20199;-61
2022/09/09 07:50:09;;;;;;;4.37;2.00;;;15.90;99.90;;;;;;5067912;28;20178;-62
2022/09/09 07:52:35;;;;;;;4.20;1.87;;;16.00;99.90;;;;;;5060594;28;20968;-61
2022/09/09 07:55:02;;;;;;;2.50;1.97;;;16.10;99.90;;;;;;5059026;28;20925;-61
2022/09/09 07:57:31;;;;;;;2.80;1.80;;;16.00;99.90;;;;;;5048293;28;20456;-61
2022/09/09 07:59:57;;;;;;;3.70;1.97;;;15.90;99.90;;;;;;5065010;28;20474;-62
2022/09/09 08:02:27;;;;;;;4.70;1.90;;;15.80;99.90;;;;;;5062945;28;20986;-61
2022/09/09 08:04:53;;;;;;;2.50;2.30;;;15.70;99.90;;;;;;5064044;28;20482;-61
2022/09/09 08:07:21;;;;;;;4.30;1.90;;;15.70;99.90;;;;;;5063346;28;20464;-61
2022/09/09 08:09:47;;;;;;;8.93;2.23;;;15.70;99.90;;;;;;5071109;28;20170;-61
2022/09/09 08:12:12;;;;;;;6.70;2.10;;;15.70;99.90;;;;;;5064370;28;20579;-61
2022/09/09 08:14:39;;;;;;;5.07;2.20;;;15.70;99.90;;;;;;5067746;28;20170;-61
2022/09/09 08:17:05;;;;;;;2.77;1.63;;;15.70;99.90;;;;;;5066257;28;20190;-61
2022/09/09 08:19:33;;;;;;;10.70;2.70;;;15.80;99.90;;;;;;5071097;28;20432;-61
2022/09/09 08:22:01;;;;;;;7.23;2.50;;;15.90;99.90;;;;;;5066597;28;20174;-61
2022/09/09 08:24:27;;;;;;;4.80;2.20;;;16.10;99.90;;;;;;5066661;28;20594;-61
2022/09/09 08:26:53;;;;;;;6.67;2.03;;;16.10;99.90;;;;;;5048844;28;20563;-60
2022/09/09 08:29:19;;;;;;;3.70;2.07;;;16.20;99.90;;;;;;5068818;28;20170;-61
2022/09/09 08:31:46;;;;;;;4.07;2.10;;;16.20;99.90;;;;;;5067389;28;20484;-61
2022/09/09 08:34:12;;;;;;;8.80;2.03;;;16.30;99.90;;;;;;5066760;28;20481;-61
2022/09/09 08:36:42;;;;;;;3.30;2.20;;;16.40;99.90;;;;;;5062697;28;20532;-61
2022/09/09 08:39:09;;;;;;;8.00;2.27;;;16.50;99.90;;;;;;5050631;28;20416;-61
2022/09/09 08:42:00;;;;;;;6.00;2.30;;;16.50;99.90;;;;;;5057301;28;20966;-61
2022/09/09 08:44:37;;;;;;;4.10;1.80;;;16.60;99.90;;;;;;5047494;28;20459;-61
2022/09/09 08:47:22;;;;;;;3.40;2.17;;;16.60;99.90;;;;;;5064032;28;20791;-59
2022/09/09 08:50:00;;;;;;;8.13;2.20;;;16.60;99.90;;;;;;5061302;28;20448;-61
2022/09/09 08:52:31;;;;;;;3.10;2.23;;;16.60;99.90;;;;;;5066321;28;20566;-60
2022/09/09 08:55:10;;;;;;;5.63;2.27;;;16.60;99.90;;;;;;5060710;28;21053;-61
2022/09/09 08:57:36;;;;;;;6.37;2.00;;;16.70;99.90;;;;;;5062689;28;20559;-61
2022/09/09 09:00:02;;;;;;;6.50;1.90;;;16.80;99.90;;;;;;5066710;28;20840;-61
2022/09/09 09:02:56;;;;;;;5.40;1.70;;;16.80;99.90;;;;;;5063105;28;20210;-61
2022/09/09 09:05:51;;;;;;;3.00;1.80;;;16.90;99.90;;;;;;5060491;28;20500;-61
2022/09/09 09:08:37;;;;;;;2.63;1.50;;;16.90;99.90;;;;;;5013431;28;20602;-62
2022/09/09 09:11:05;;;;;;;4.80;1.70;;;17.00;99.90;;;;;;5065856;28;20456;-61
2022/09/09 09:14:02;;;;;;;10.40;2.07;;;17.10;99.90;;;;;;5063116;28;20433;-61
2022/09/09 09:16:40;;;;;;;3.33;1.70;;;17.30;99.90;;;;;;5067786;28;20432;-61
2022/09/09 09:19:12;;;;;;;3.90;1.67;;;17.40;99.90;;;;;;5067493;28;20805;-62
2022/09/09 09:21:47;;;;;;;3.90;1.40;;;17.50;99.90;;;;;;5064022;28;20504;-61
2022/09/09 09:24:50;;;;;;;3.83;1.50;;;17.50;99.90;;;;;;5064768;28;22039;-61
2022/09/09 09:27:35;;;;;;;2.93;1.50;;;17.30;98.80;;;;;;5062104;28;20448;-62
2022/09/09 09:30:21;;;;;;;4.30;1.30;;;17.20;96.20;;;;;;5063016;28;20468;-62
2022/09/09 09:32:55;;;;;;;3.70;1.80;;;17.10;99.60;;;;;;5059034;28;20463;-60
2022/09/09 09:35:21;;;;;;;4.13;1.43;;;17.30;99.90;;;;;;5046170;28;20444;-60
2022/09/09 09:37:47;;;;;;;2.43;1.37;;;17.50;99.70;;;;;;5055667;28;20444;-62
2022/09/09 09:40:16;;;;;;;5.30;1.83;;;17.70;98.40;;;;;;5063154;28;20197;-62
2022/09/09 09:43:00;;;;;;;4.20;2.17;;;17.70;96.70;;;;;;5061653;28;20791;-62
2022/09/09 09:45:44;;;;;;;6.03;1.50;;;17.80;95.80;;;;;;5043843;28;20526;-62
2022/09/09 09:48:11;;;;;;;5.23;1.37;;;17.80;91.10;;;;;;5062094;28;20952;-62
2022/09/09 09:50:46;;;;;;;4.83;1.37;;;17.70;86.50;;;;;;5050056;28;20511;-62
2022/09/09 09:53:31;;;;;;;7.07;1.43;;;17.60;91.20;;;;;;5053994;28;20972;-61
2022/09/09 09:56:01;;;;;;;1.20;1.00;;;17.60;91.60;;;;;;5064561;28;20850;-62
2022/09/09 09:58:33;;;;;;;3.67;1.30;;;17.50;82.80;;;;;;5060697;28;20535;-61
2022/09/09 10:00:59;;;;;;;3.00;1.10;;;17.40;82.30;;;;;;5058142;28;21353;-62
2022/09/09 10:03:26;;;;;;;2.73;0.90;;;17.40;83.30;;;;;;5059517;28;20886;-62
2022/09/09 10:05:53;;;;;;;2.40;1.03;;;17.30;86.20;;;;;;5037733;28;20432;-61
2022/09/09 10:08:20;;;;;;;1.93;1.00;;;17.40;90.90;;;;;;5034705;28;20464;-61
2022/09/09 10:10:48;;;;;;;2.70;1.20;;;17.50;86.20;;;;;;5041072;28;20494;-60
2022/09/09 10:13:14;;;;;;;2.33;1.30;;;17.60;83.60;;;;;;5052108;28;20798;-59
2022/09/09 10:15:59;;;;;;;2.20;1.13;;;17.50;84.90;;;;;;5060212;28;20433;-59
2022/09/09 10:18:54;;;;;;;4.97;1.00;;;17.50;83.60;;;;;;5059270;28;20648;-59
2022/09/09 10:21:57;;;;;;;3.37;1.20;;;17.40;82.10;;;;;;5062076;28;20515;-59
2022/09/09 10:24:37;;;;;;;1.40;0.90;;;17.20;82.60;;;;;;5060454;28;20438;-60
2022/09/09 10:27:29;;;;;;;5.57;1.10;;;17.10;83.50;;;;;;5062263;28;20963;-58
2022/09/09 10:30:08;;;;;;;3.20;1.20;;;17.10;85.10;;;;;;5052402;28;20605;-59
2022/09/09 10:32:58;;;;;;;2.73;1.33;;;17.00;85.50;;;;;;5061686;28;20452;-60
2022/09/09 10:36:13;;;;;;;2.63;1.10;;;17.00;89.50;;;;;;5067598;28;20828;-61
2022/09/09 10:39:12;;;;;;;1.97;1.30;;;17.10;88.30;;;;;;5028269;28;21416;-59
2022/09/09 10:42:03;;;;;;;2.00;1.07;;;17.10;78.70;;;;;;5060011;28;20529;-62
2022/09/09 10:44:54;;;;;;;5.83;1.10;;;17.20;75.20;;;;;;5058997;28;20452;-59
2022/09/09 10:47:41;;;;;;;2.83;1.20;;;17.20;69.60;;;;;;5062977;28;20814;-58
2022/09/09 10:50:10;;;;;;;3.63;1.43;;;17.30;68.90;;;;;;5060209;28;20431;-58
2022/09/09 10:53:09;;;;;;;3.07;1.40;;;17.50;68.60;;;;;;5061840;28;20513;-59
2022/09/09 10:55:42;;;;;;;4.17;1.60;;;17.70;66.70;;;;;;5059611;28;20533;-58
2022/09/09 10:58:19;;;;;;;3.80;1.50;;;18.10;62.80;;;;;;5061237;28;20448;-60
2022/09/09 11:00:53;;;;;;;3.50;1.80;;;18.30;61.80;;;;;;5064101;28;20435;-60
2022/09/09 11:03:25;;;;;;;2.73;1.27;;;18.70;60.70;;;;;;5056592;28;20425;-60
2022/09/09 11:05:57;;;;;;;2.20;1.10;;;18.90;60.00;;;;;;5059492;28;20442;-59
2022/09/09 11:08:29;;;;;;;1.20;1.10;;;19.10;60.10;;;;;;5063444;28;20509;-56
2022/09/09 11:11:11;;;;;;;3.37;1.50;;;19.20;58.50;;;;;;5065182;28;20533;-58
2022/09/09 11:13:55;;;;;;;4.20;1.77;;;19.30;58.40;;;;;;5056443;28;20425;-62
2022/09/09 11:16:48;;;;;;;1.73;1.07;;;19.30;57.90;;;;;;5061451;28;20439;-62
2022/09/09 11:19:28;;;;;;;6.83;1.47;;;19.50;56.40;;;;;;5061916;28;20429;-60
2022/09/09 11:21:55;;;;;;;2.30;1.07;;;19.60;55.10;;;;;;5058681;28;20432;-62
2022/09/09 11:24:37;;;;;;;4.40;1.63;;;19.80;53.60;;;;;;5060864;28;20455;-62
2022/09/09 11:27:18;;;;;;;4.50;1.60;;;19.90;53.40;;;;;;5063773;28;20976;-61
2022/09/09 11:30:12;;;;;;;1.60;1.20;;;20.00;53.40;;;;;;5067438;28;20428;-60
2022/09/09 11:32:56;;;;;;;4.87;0.87;;;20.30;52.10;;;;;;5057508;28;20459;-60
2022/09/09 11:35:21;;;;;;;1.40;1.07;;;20.40;51.30;;;;;;5061434;28;20433;-60
2022/09/09 11:37:50;;;;;;;1.90;1.30;;;20.70;52.60;;;;;;5046797;28;21049;-59
2022/09/09 11:40:23;;;;;;;2.90;1.40;;;20.90;52.50;;;;;;5062535;28;20774;-60
2022/09/09 11:42:49;;;;;;;3.23;1.60;;;21.20;53.90;;;;;;5065206;28;20436;-60
2022/09/09 11:45:27;;;;;;;2.70;1.07;;;21.00;49.60;;;;;;5066647;28;20532;-59
2022/09/09 11:48:00;;;;;;;8.20;1.00;;;20.90;48.50;;;;;;5062210;28;20448;-61
2022/09/09 11:50:26;;;;;;;1.23;1.00;;;20.60;49.00;;;;;;5059423;28;20524;-58
2022/09/09 11:53:22;;;;;;;1.20;1.10;;;20.50;49.30;;;;;;5065671;28;20554;-59
2022/09/09 11:56:09;;;;;;;3.70;1.00;;;20.50;50.20;;;;;;5065271;28;20559;-59
2022/09/09 11:58:41;;;;;;;3.10;1.07;;;20.80;50.80;;;;;;5057277;28;20466;-58
2022/09/09 12:01:34;;;;;;;4.80;1.40;;;21.20;50.60;;;;;;5057274;28;20526;-59
2022/09/09 12:04:09;;;;;;;1.33;1.00;;;21.50;49.00;;;;;;5068468;28;20561;-59
2022/09/09 12:06:43;;;;;;;1.47;0.80;;;21.80;48.50;;;;;;5064287;28;20439;-59
2022/09/09 12:09:19;;;;;;;4.67;1.23;;;22.00;47.30;;;;;;5053434;28;20440;-61
2022/09/09 12:11:45;;;;;;;2.97;0.90;;;22.20;45.30;;;;;;5058142;28;20469;-61
2022/09/09 12:14:22;;;;;;;1.77;0.83;;;22.30;45.60;;;;;;5061805;28;20433;-60
2022/09/09 12:16:48;;;;;;;2.33;1.00;;;22.30;46.40;;;;;;5063616;28;20210;-61
2022/09/09 12:19:18;;;;;;;1.63;0.73;;;22.50;43.80;;;;;;5066727;28;20425;-61
2022/09/09 12:22:04;;;;;;;2.00;0.80;;;22.60;44.50;;;;;;5059309;28;20183;-61
2022/09/09 12:24:46;;;;;;;4.30;1.23;;;22.60;43.60;;;;;;5061895;28;20424;-61
2022/09/09 12:27:21;;;;;;;2.23;1.00;;;22.40;43.10;;;;;;5063729;28;20452;-61
2022/09/09 12:29:53;;;;;;;2.83;1.00;;;22.30;43.70;;;;;;5044890;28;21054;-62
2022/09/09 12:32:25;;;;;;;5.07;1.20;;;22.00;44.10;;;;;;5056869;28;20460;-63
2022/09/09 12:35:09;;;;;;;1.90;0.93;;;21.60;44.90;;;;;;5060668;28;20428;-61
2022/09/09 12:37:38;;;;;;;2.30;1.00;;;21.30;46.10;;;;;;5060988;28;20460;-63
2022/09/09 12:40:18;;;;;;;2.23;1.10;;;21.00;47.00;;;;;;5065269;28;20522;-63
2022/09/09 12:42:44;;;;;;;4.93;1.40;;;21.10;48.20;;;;;;5068343;28;20436;-63
2022/09/09 12:45:18;;;;;;;1.20;1.03;;;21.50;49.40;;;;;;5064855;28;20424;-62
2022/09/09 12:47:55;;;;;;;3.40;1.20;;;21.90;49.50;;;;;;5063058;28;20468;-62
2022/09/09 12:50:26;;;;;;;1.60;0.83;;;22.30;48.30;;;;;;5067610;28;20431;-62
2022/09/09 12:53:06;;;;;;;5.67;1.00;;;22.60;48.30;;;;;;5066725;28;20464;-63
2022/09/09 12:55:37;;;;;;;1.83;1.00;;;22.90;48.40;;;;;;5062736;28;20436;-63
2022/09/09 12:58:05;;;;;;;2.33;0.90;;;23.20;47.90;;;;;;5059323;28;20479;-62
2022/09/09 13:00:32;;;;;;;4.40;0.83;;;23.40;44.30;;;;;;5066951;28;20482;-63
2022/09/09 13:03:17;;;;;;;3.67;0.80;;;23.40;43.50;;;;;;5052149;28;20803;-62
2022/09/09 13:05:42;;;;;;;3.43;1.00;;;23.50;42.60;;;;;;5061116;28;20443;-62
2022/09/09 13:08:13;;;;;;;2.37;0.90;;;23.60;42.80;;;;;;5062372;28;20541;-63
2022/09/09 13:10:54;;;;;;;3.93;0.93;;;23.70;42.80;;;;;;5063901;28;20189;-62
2022/09/09 13:13:29;;;;;;;2.90;0.80;;;23.80;44.10;;;;;;5063015;28;20467;-62